Summerville, Texas
Current Conditions -  °F | °C
As of 8:15 AM on Monday 20 Oct 2014 (Local Time) from KT20 Reporting Station
Haze Haze  
Wind Chill: 64°   Ceiling: Unl
Heat Index: 64°   Visibility: 3mi
Dew Point: 64°   Wind: 5mph
Humidity: 98%   Direction: 50°NE
Pressure: 30.04"   Gusts: NA
Location:  29.481°N, 97.4305°W
Report Text: KT20 201315Z AUTO 05004KT 3SM BR CLR 18/18 A3004 RMK AO2 T01800177
Loading
Personal Weather Stations






























Interactive Weather Map
Tropical Storm Tracking
New forecast layout! Learn more

10-Day Weather Forecast

Advertisements
Track Severe Weather on mobile